Weather reports worldwide

Advertisment
Arcen aws, Netherlands (6391): temperature & dewpoint: 22.05.2020 22:00:00 - 28.05.2020 22:00:00 (CEST)Arcen aws, Netherlands (6391): temperature 5cm: 22.05.2020 22:00:00 - 28.05.2020 22:00:00 (CEST)Arcen aws, Netherlands (6391): wind speed & gusts: 22.05.2020 22:00:00 - 28.05.2020 22:00:00 (CEST)Arcen aws, Netherlands (6391): wind direction: 22.05.2020 22:00:00 - 28.05.2020 22:00:00 (CEST)Arcen aws, Netherlands (6391): precipitation: 22.05.2020 22:00:00 - 28.05.2020 22:00:00 (CEST)
Date & Time tt [°C] td [°C] tt 5cm [°C] ff [km/h] ff [kn] fx [km/h] fx [kn] dd rr [mm]
28.05.2020 22:00:00 15,3 2,2 14,4 14 8 25 14 N 0,0
28.05.2020 21:00:00 17,1 0,9 16,3 14 8 32 18 NNE 0,0
28.05.2020 20:00:00 19,1 1,5 18,6 18 10 29 16 N 0,0
28.05.2020 19:00:00 20,4 1,7 22,1 14 8 32 18 NNE 0,0
28.05.2020 18:00:00 21,4 2,0 23,0 18 10 32 18 N 0,0
28.05.2020 17:00:00 21,6 3,4 24,3 18 10 32 18 NNE 0,0
28.05.2020 16:00:00 20,9 3,5 24,4 18 10 36 19 N 0,0
28.05.2020 15:00:00 21,0 2,7 24,0 14 8 32 18 N 0,0
28.05.2020 14:00:00 20,2 2,7 24,1 14 8 32 18 NNE 0,0
28.05.2020 13:00:00 20,4 3,2 23,6 14 8 36 19 NE 0,0
28.05.2020 12:00:00 18,6 3,3 21,4 14 8 29 16 NNE 0,0
28.05.2020 11:00:00 17,8 5,7 20,2 14 8 25 14 ENE 0,0
28.05.2020 10:00:00 15,6 6,2 17,7 14 8 25 14 NNE 0,0
28.05.2020 09:00:00 13,9 6,4 15,2 14 8 29 16 NE 0,0
28.05.2020 08:00:00 11,8 6,8 12,2 14 8 25 14 NNE 0,0
28.05.2020 07:00:00 9,6 5,9 8,3 11 6 14 8 NNE 0,0
28.05.2020 06:00:00 8,3 5,2 7,3 11 6 14 8 NNE 0,0
28.05.2020 05:00:00 8,7 4,8 7,7 11 6 18 10 NNE 0,0
28.05.2020 04:00:00 9,6 4,7 8,5 11 6 22 12 NNE 0,0
28.05.2020 03:00:00 10,7 4,6 9,7 14 8 29 16 NNE 0,0
28.05.2020 02:00:00 12,0 4,0 11,1 18 10 29 16 NNE 0,0
28.05.2020 01:00:00 13,9 6,1 13,6 14 8 25 14 N 0,0
28.05.2020 00:00:00 14,5 7,5 13,9 11 6 25 14 N 0,0
27.05.2020 23:00:00 15,7 9,2 15,1 14 8 32 18 N 0,0
27.05.2020 22:00:00 17,2 9,6 16,6 22 12 36 19 NNE 0,0
27.05.2020 21:00:00 19,2 8,5 18,6 14 8 25 14 N 0,0
27.05.2020 20:00:00 20,8 7,6 20,2 14 8 25 14 N 0,0
27.05.2020 19:00:00 21,5 7,9 22,8 14 8 29 16 N 0,0
27.05.2020 18:00:00 22,4 8,8 24,4 14 8 29 16 NNW 0,0
27.05.2020 17:00:00 22,8 8,5 23,6 11 6 25 14 N 0,0
27.05.2020 16:00:00 23,8 8,5 27,5 7 4 18 10 NW 0,0
27.05.2020 15:00:00 24,5 10,3 25,7 4 2 14 8 W 0,0
27.05.2020 14:00:00 23,9 9,9 25,2 4 2 22 12 W 0,0
27.05.2020 13:00:00 22,5 8,3 24,9 4 2 18 10 NW 0,0
27.05.2020 12:00:00 22,2 8,4 24,6 4 2 11 6 S 0,0
27.05.2020 11:00:00 21,5 9,5 23,7 4 2 18 10 NW 0,0
27.05.2020 10:00:00 20,5 8,7 22,4 4 2 7 4 E 0,0
27.05.2020 09:00:00 17,8 8,4 18,3 0 0 4 2 N 0,0
27.05.2020 08:00:00 13,7 9,8 13,4 4 2 4 2 E 0,0
27.05.2020 07:00:00 11,1 9,3 10,4 0 0 4 2 N 0,0
27.05.2020 06:00:00 7,2 6,2 6,1 4 2 4 2 N 0,0
27.05.2020 05:00:00 7,0 6,2 5,6 0 0 7 4 N 0,0
27.05.2020 04:00:00 7,3 5,8 5,5 0 0 4 2 N 0,0
27.05.2020 03:00:00 8,1 6,4 6,5 0 0 4 2 N 0,0
27.05.2020 02:00:00 8,7 6,6 7,1 4 2 4 2 NE 0,0
27.05.2020 01:00:00 9,9 7,0 7,7 4 2 4 2 NNE 0,0
27.05.2020 00:00:00 11,2 7,1 9,2 0 0 7 4 N 0,0
26.05.2020 23:00:00 12,3 6,7 10,0 4 2 4 2 N 0,0
26.05.2020 22:00:00 15,2 6,8 13,3 0 0 7 4 N 0,0
26.05.2020 21:00:00 19,4 5,7 18,2 7 4 18 10 NNE 0,0
26.05.2020 20:00:00 21,8 5,4 21,6 11 6 18 10 NE 0,0
26.05.2020 19:00:00 22,6 6,0 24,2 11 6 18 10 NNE 0,0
26.05.2020 18:00:00 22,4 5,0 24,7 11 6 25 14 NNE 0,0
26.05.2020 17:00:00 22,6 4,6 25,7 14 8 29 16 NNE 0,0
26.05.2020 16:00:00 22,6 5,1 26,0 11 6 25 14 NE 0,0
26.05.2020 15:00:00 21,7 6,2 24,8 18 10 29 16 N 0,0
26.05.2020 14:00:00 21,5 6,5 24,9 18 10 29 16 N 0,0
26.05.2020 13:00:00 20,3 6,6 23,8 14 8 25 14 N 0,0
26.05.2020 12:00:00 19,7 8,2 22,5 11 6 22 12 N 0,0
26.05.2020 11:00:00 18,3 8,9 20,6 7 4 14 8 N 0,0
26.05.2020 10:00:00 16,1 8,6 18,2 4 2 11 6 ENE 0,0
26.05.2020 09:00:00 14,5 8,6 16,0 7 4 11 6 E 0,0
26.05.2020 08:00:00 11,8 9,5 11,4 4 2 7 4 N 0,0
26.05.2020 07:00:00 8,2 8,0 7,0 0 0 4 2 N 0,0
26.05.2020 06:00:00 5,8 5,6 4,8 4 2 4 2 NNE 0,0
26.05.2020 05:00:00 5,9 5,3 4,0 0 0 4 2 N 0,0
26.05.2020 04:00:00 7,0 6,5 5,0 0 0 4 2 N 0,0
26.05.2020 03:00:00 7,5 6,8 5,6 0 0 4 2 N 0,0
26.05.2020 02:00:00 8,1 7,3 6,4 0 0 4 2 N 0,0
26.05.2020 01:00:00 9,0 7,8 7,2 4 2 4 2 NNE 0,0
26.05.2020 00:00:00 10,2 8,7 8,5 4 2 4 2 N 0,0
25.05.2020 23:00:00 12,6 9,2 11,0 4 2 11 6 N 0,0
25.05.2020 22:00:00 14,9 9,2 13,2 4 2 14 8 N 0,0
25.05.2020 21:00:00 17,5 8,7 16,6 11 6 22 12 N 0,0
25.05.2020 20:00:00 19,0 8,0 18,4 14 8 25 14 N 0,0
25.05.2020 19:00:00 20,0 7,9 20,9 14 8 29 16 N 0,0
25.05.2020 18:00:00 21,1 8,7 23,3 18 10 29 16 NNE 0,0
25.05.2020 17:00:00 20,2 8,9 20,5 14 8 22 12 N 0,0
25.05.2020 16:00:00 21,2 9,5 22,7 11 6 25 14 NNW 0,0
25.05.2020 15:00:00 19,8 9,5 21,7 14 8 25 14 NNW 0,0
25.05.2020 14:00:00 18,5 9,4 19,0 11 6 25 14 NNW 0,0
25.05.2020 13:00:00 18,1 10,0 18,8 14 8 29 16 N 0,0
25.05.2020 12:00:00 18,2 10,4 19,8 7 4 18 10 W 0,0
25.05.2020 11:00:00 17,6 11,6 18,6 4 2 22 12 WNW 0,0
25.05.2020 10:00:00 16,2 11,6 17,1 7 4 18 10 NW 0,0
25.05.2020 09:00:00 14,5 11,4 15,0 4 2 14 8 WNW 0,0
25.05.2020 08:00:00 13,5 11,3 13,4 4 2 14 8 WNW 0,0
25.05.2020 07:00:00 12,7 11,3 12,3 4 2 11 6 W 0,0
25.05.2020 06:00:00 11,9 11,2 11,0 4 2 11 6 W 0,0
25.05.2020 05:00:00 12,0 11,3 11,3 4 2 11 6 W 0,0
25.05.2020 04:00:00 12,6 11,5 12,2 4 2 11 6 W 0,0
25.05.2020 03:00:00 12,7 11,8 12,4 4 2 14 8 W 0,0
25.05.2020 02:00:00 12,8 11,8 12,5 4 2 11 6 W 0,0
25.05.2020 01:00:00 12,8 12,1 12,6 4 2 11 6 W 0,0
25.05.2020 00:00:00 12,8 12,2 12,5 4 2 11 6 WNW 0,0
24.05.2020 23:00:00 13,0 12,2 12,9 4 2 11 6 WNW 0,0
24.05.2020 22:00:00 13,2 12,1 13,1 4 2 14 8 W 0,0
24.05.2020 21:00:00 13,4 12,2 13,4 4 2 22 12 W 0,0
24.05.2020 20:00:00 13,6 12,2 13,9 7 4 25 14 W 1,1
24.05.2020 19:00:00 15,2 11,1 15,4 7 4 25 14 W 0,0
24.05.2020 18:00:00 15,3 10,8 15,5 11 6 25 14 W 0,0
24.05.2020 17:00:00 14,9 11,6 15,2 7 4 25 14 W 0,0
24.05.2020 16:00:00 13,1 11,8 13,1 7 4 25 14 WSW 0,0
24.05.2020 15:00:00 13,1 11,6 13,3 7 4 22 12 W 0,0
24.05.2020 14:00:00 13,0 10,4 13,4 14 8 32 18 WSW 0,0
24.05.2020 13:00:00 14,4 8,5 14,7 14 8 36 19 W 0,0
24.05.2020 12:00:00 15,1 7,7 15,2 11 6 36 19 W 0,0
24.05.2020 11:00:00 15,1 7,6 15,5 11 6 32 18 WSW 0,0
24.05.2020 10:00:00 15,2 8,0 16,4 11 6 29 16 WSW 0,0
24.05.2020 09:00:00 14,1 8,3 14,5 11 6 25 14 W 0,0
24.05.2020 08:00:00 12,2 8,4 12,0 11 6 25 14 WSW 0,0
24.05.2020 07:00:00 11,2 8,1 10,5 11 6 22 12 SW 0,0
24.05.2020 06:00:00 10,3 7,7 9,4 7 4 18 10 WSW 0,0
24.05.2020 05:00:00 10,6 7,5 9,8 7 4 22 12 WSW 0,0
24.05.2020 04:00:00 10,8 6,8 10,0 7 4 22 12 WSW 0,0
24.05.2020 03:00:00 11,4 6,1 10,4 7 4 22 12 WSW 0,0
24.05.2020 02:00:00 12,0 5,5 11,1 7 4 25 14 WSW 0,0
24.05.2020 01:00:00 12,3 5,3 11,2 11 6 22 12 WSW 0,0
24.05.2020 00:00:00 12,8 5,1 11,3 7 4 18 10 SW 0,0
23.05.2020 23:00:00 12,6 5,8 10,4 4 2 11 6 SW 0,0
23.05.2020 22:00:00 14,6 5,1 13,3 7 4 22 12 W 0,0
23.05.2020 21:00:00 15,9 6,1 15,0 7 4 29 16 W 0,1
23.05.2020 20:00:00 16,6 5,9 15,7 7 4 25 14 W 0,0
23.05.2020 19:00:00 15,6 8,8 15,8 14 8 36 19 W 0,4
23.05.2020 18:00:00 18,9 6,1 20,2 7 4 22 12 W 0,0
23.05.2020 17:00:00 16,0 7,0 16,4 7 4 29 16 W 0,1
23.05.2020 16:00:00 18,5 3,7 19,6 11 6 36 19 W 0,0
23.05.2020 15:00:00 18,5 4,1 19,4 11 6 29 16 W 0,0
23.05.2020 14:00:00 17,9 5,0 18,6 11 6 32 18 W 0,0
23.05.2020 13:00:00 16,8 7,2 18,3 14 8 29 16 WSW 0,0
23.05.2020 12:00:00 16,4 7,3 17,8 14 8 32 18 WSW 0,0
23.05.2020 11:00:00 15,3 7,4 15,9 11 6 25 14 W 0,0
23.05.2020 10:00:00 14,7 7,8 15,0 11 6 29 16 WSW 0,0
23.05.2020 09:00:00 14,5 7,0 14,6 11 6 25 14 WSW 0,0
23.05.2020 08:00:00 13,9 5,7 13,8 7 4 18 10 SW 0,0
23.05.2020 07:00:00 13,6 4,9 13,2 7 4 18 10 SW 0,0
23.05.2020 06:00:00 13,6 3,8 12,9 7 4 18 10 WSW 0,0
23.05.2020 05:00:00 14,0 2,8 13,1 7 4 18 10 WSW 0,0
23.05.2020 04:00:00 14,6 1,9 13,9 4 2 18 10 WSW 0,0
23.05.2020 03:00:00 15,0 2,4 14,1 7 4 18 10 WSW 0,0
23.05.2020 02:00:00 15,6 4,2 14,6 7 4 18 10 WSW 0,0
23.05.2020 01:00:00 16,1 4,6 15,1 4 2 22 12 WSW 0,0
23.05.2020 00:00:00 16,8 10,7 16,0 7 4 18 10 WSW 0,0
22.05.2020 23:00:00 16,7 12,3 16,0 7 4 14 8 SW 0,0
22.05.2020 22:00:00 17,3 13,0 16,6 4 2 14 8 SSW 0,0

tt = temperature
td = dewpoint
tt 5cm = temperature 5cm
ff = wind speed
fx = gusts
dd = wind direction
rr = precipitation

Next stations